createdAt,value
2019-03-20T00:00:42.213Z,16.66
2019-03-20T00:03:48.031Z,17.01
2019-03-20T00:06:53.959Z,17.23
2019-03-20T00:09:59.692Z,17.12
2019-03-20T00:13:06.750Z,16.85
2019-03-20T00:16:12.477Z,16.87
2019-03-20T00:19:18.250Z,16.68
2019-03-20T00:22:23.979Z,16.92
2019-03-20T00:25:29.826Z,17.23
2019-03-20T00:28:35.763Z,17.06
2019-03-20T00:31:41.596Z,16.84
2019-03-20T00:34:47.378Z,16.73
2019-03-20T00:37:53.252Z,16.79
2019-03-20T00:40:58.987Z,16.21
2019-03-20T00:44:04.814Z,16.77
2019-03-20T00:47:10.640Z,16.97
2019-03-20T00:50:16.707Z,16.89
2019-03-20T00:53:22.599Z,16.94
2019-03-20T00:56:28.342Z,16.65
2019-03-20T00:59:34.085Z,16.51
2019-03-20T01:02:39.928Z,16.62
2019-03-20T01:05:45.743Z,16.76
2019-03-20T01:08:51.512Z,16.56
2019-03-20T01:11:58.364Z,16.39
2019-03-20T01:15:04.254Z,16.02
2019-03-20T01:18:11.099Z,16.08
2019-03-20T01:21:18.101Z,16.39
2019-03-20T01:24:23.860Z,16.44
2019-03-20T01:27:29.662Z,16.54
2019-03-20T01:30:37.656Z,16.64
2019-03-20T01:33:43.502Z,16.43
2019-03-20T01:36:49.170Z,16.47
2019-03-20T01:39:54.928Z,16.62
2019-03-20T01:43:01.799Z,16.61
2019-03-20T01:46:07.779Z,16.69
2019-03-20T01:49:13.517Z,16.84
2019-03-20T01:52:19.291Z,16.87
2019-03-20T01:55:25.189Z,16.85
2019-03-20T01:58:30.992Z,16.98
2019-03-20T02:01:36.810Z,16.95
2019-03-20T02:04:42.658Z,16.83
2019-03-20T02:07:48.498Z,16.66
2019-03-20T02:10:54.237Z,16.66
2019-03-20T02:14:00.083Z,16.77
2019-03-20T02:17:05.804Z,16.50
2019-03-20T02:20:13.732Z,16.61
2019-03-20T02:23:19.458Z,16.51
2019-03-20T02:26:25.234Z,16.44
2019-03-20T02:29:31.116Z,16.51
2019-03-20T02:32:36.860Z,16.39
2019-03-20T02:35:51.179Z,16.51
2019-03-20T02:38:50.252Z,16.37
2019-03-20T02:41:56.026Z,16.33
2019-03-20T02:45:01.821Z,16.28
2019-03-20T02:48:07.733Z,16.18
2019-03-20T02:51:13.599Z,16.18
2019-03-20T02:54:19.344Z,16.07
2019-03-20T02:57:25.079Z,16.10
2019-03-20T03:00:30.874Z,16.10
2019-03-20T03:03:36.674Z,16.01
2019-03-20T03:06:42.489Z,15.97
2019-03-20T03:09:48.301Z,15.97
2019-03-20T03:12:54.138Z,15.89
2019-03-20T03:16:00.000Z,15.42
2019-03-20T03:19:05.833Z,15.36
2019-03-20T03:22:11.763Z,15.38
2019-03-20T03:25:17.612Z,15.55
2019-03-20T03:28:23.596Z,15.52
2019-03-20T03:31:29.365Z,15.83
2019-03-20T03:34:35.135Z,15.77
2019-03-20T03:37:41.069Z,15.76
2019-03-20T03:40:47.847Z,15.70
2019-03-20T03:43:53.592Z,15.72
2019-03-20T03:46:59.321Z,15.64
2019-03-20T03:50:05.524Z,15.16
2019-03-20T03:53:11.425Z,15.54
2019-03-20T03:56:17.235Z,15.71
2019-03-20T03:59:23.066Z,15.75
2019-03-20T04:02:28.858Z,15.74
2019-03-20T04:05:34.788Z,15.55
2019-03-20T04:08:40.719Z,15.49
2019-03-20T04:11:46.560Z,15.56
2019-03-20T04:14:52.443Z,15.56
2019-03-20T04:17:58.178Z,15.23
2019-03-20T04:21:04.020Z,15.28
2019-03-20T04:24:09.755Z,15.13
2019-03-20T04:27:15.771Z,15.34
2019-03-20T04:30:21.787Z,15.41
2019-03-20T04:33:27.656Z,14.47
2019-03-20T04:36:33.503Z,14.91
2019-03-20T04:39:39.246Z,14.99
2019-03-20T04:42:45.077Z,15.33
2019-03-20T04:45:50.816Z,15.28
2019-03-20T04:48:56.728Z,15.30
2019-03-20T04:52:02.451Z,15.27
2019-03-20T04:55:08.570Z,15.23
2019-03-20T04:58:14.293Z,15.12
2019-03-20T05:01:20.131Z,15.18
2019-03-20T05:04:25.837Z,15.31
2019-03-20T05:07:31.703Z,15.34
2019-03-20T05:10:37.497Z,15.07
2019-03-20T05:13:43.229Z,15.10
2019-03-20T05:16:49.094Z,15.32
2019-03-20T05:19:55.001Z,15.33
2019-03-20T05:23:00.800Z,15.27
2019-03-20T05:26:06.538Z,15.05
2019-03-20T05:29:12.307Z,15.38
2019-03-20T05:32:19.749Z,15.32
2019-03-20T05:35:25.853Z,15.46
2019-03-20T05:38:31.587Z,15.58
2019-03-20T05:41:37.381Z,15.42
2019-03-20T05:44:43.161Z,15.37
2019-03-20T05:47:49.242Z,15.31
2019-03-20T05:50:54.962Z,15.38
2019-03-20T05:54:00.708Z,15.35
2019-03-20T05:57:06.486Z,14.92
2019-03-20T06:00:13.930Z,15.31
2019-03-20T06:03:19.667Z,15.50
2019-03-20T06:06:25.399Z,15.90
2019-03-20T06:09:31.181Z,16.13
2019-03-20T06:12:36.902Z,16.25
2019-03-20T06:15:42.751Z,16.67
2019-03-20T06:18:48.469Z,17.17
2019-03-20T06:21:54.271Z,17.29
2019-03-20T06:25:00.170Z,17.23
2019-03-20T06:28:06.362Z,17.04
2019-03-20T06:31:12.165Z,16.51
2019-03-20T06:34:17.922Z,16.44
2019-03-20T06:37:32.271Z,16.52
2019-03-20T06:40:31.263Z,16.23
2019-03-20T06:43:37.030Z,16.25
2019-03-20T06:46:42.833Z,16.42
2019-03-20T06:49:48.631Z,16.32
2019-03-20T06:52:54.526Z,16.47
2019-03-20T06:56:00.265Z,16.27
2019-03-20T06:59:50.810Z,16.40
2019-03-20T07:02:56.487Z,16.33
2019-03-20T07:06:24.826Z,16.32
2019-03-20T07:09:41.380Z,16.77
2019-03-20T07:12:47.137Z,16.90
2019-03-20T07:15:52.879Z,16.94
2019-03-20T07:18:58.666Z,16.73
2019-03-20T07:22:04.508Z,17.09
2019-03-20T07:25:10.340Z,17.31
2019-03-20T07:28:16.235Z,17.06
2019-03-20T07:31:22.019Z,17.18
2019-03-20T07:34:27.780Z,17.25
2019-03-20T07:37:33.803Z,17.27
2019-03-20T07:40:39.553Z,17.20
2019-03-20T07:43:45.372Z,17.50
2019-03-20T07:46:51.151Z,17.48
2019-03-20T07:49:56.992Z,17.22
2019-03-20T07:53:02.783Z,17.14
2019-03-20T07:56:08.714Z,17.48
2019-03-20T07:59:14.442Z,17.13
2019-03-20T08:02:20.341Z,17.66
2019-03-20T08:05:29.430Z,18.13
2019-03-20T08:08:33.632Z,18.31
2019-03-20T08:11:40.470Z,18.46
2019-03-20T08:14:46.364Z,19.75
2019-03-20T08:17:52.186Z,19.75
2019-03-20T08:20:58.093Z,20.20
2019-03-20T08:24:03.834Z,20.17
2019-03-20T08:27:09.629Z,20.48
2019-03-20T08:30:16.159Z,21.00
2019-03-20T08:33:21.940Z,20.80
2019-03-20T08:36:27.811Z,21.04
2019-03-20T08:39:33.555Z,21.28
2019-03-20T08:42:39.420Z,21.28
2019-03-20T08:45:45.165Z,21.47
2019-03-20T08:48:50.925Z,21.65
2019-03-20T08:51:56.696Z,21.98
2019-03-20T08:55:02.526Z,22.35
2019-03-20T08:58:08.380Z,22.52
2019-03-20T09:01:14.112Z,22.77
2019-03-20T09:04:19.843Z,22.73
2019-03-20T09:07:25.600Z,22.83
2019-03-20T09:10:31.365Z,23.28
2019-03-20T09:13:37.108Z,23.15
2019-03-20T09:16:42.952Z,23.65
2019-03-20T09:19:48.734Z,23.43
2019-03-20T09:22:54.578Z,23.73
2019-03-20T09:26:00.321Z,24.06
2019-03-20T09:29:06.241Z,23.81
2019-03-20T09:32:12.079Z,23.51
2019-03-20T09:35:18.953Z,24.06
2019-03-20T09:38:24.760Z,24.52
2019-03-20T09:41:30.490Z,24.75
2019-03-20T09:44:36.327Z,24.23
2019-03-20T09:47:42.172Z,24.65
2019-03-20T09:50:48.057Z,25.11
2019-03-20T09:53:53.784Z,25.33
2019-03-20T09:56:59.516Z,25.69
2019-03-20T10:00:11.193Z,25.42
2019-03-20T10:03:16.965Z,24.71
2019-03-20T10:06:22.891Z,24.21
2019-03-20T10:09:28.614Z,23.90
2019-03-20T10:12:34.395Z,24.68
2019-03-20T10:15:40.160Z,24.63
2019-03-20T10:18:45.924Z,24.51
2019-03-20T10:21:51.669Z,25.03
2019-03-20T10:24:57.506Z,24.62
2019-03-20T10:28:03.383Z,24.86
2019-03-20T10:31:09.173Z,25.46
2019-03-20T10:34:15.044Z,24.87
2019-03-20T10:37:20.770Z,25.25
2019-03-20T10:40:26.803Z,25.37
2019-03-20T10:43:32.570Z,25.04
2019-03-20T10:46:38.362Z,24.22
2019-03-20T10:49:44.197Z,24.05
2019-03-20T10:52:50.149Z,24.58
2019-03-20T10:55:55.886Z,24.36
2019-03-20T10:59:01.823Z,24.75
2019-03-20T11:02:08.599Z,24.97
2019-03-20T11:05:15.046Z,24.86
2019-03-20T11:08:20.987Z,24.68
2019-03-20T11:11:27.519Z,24.70
2019-03-20T11:14:33.264Z,24.83
2019-03-20T11:17:40.127Z,24.91
2019-03-20T11:20:45.843Z,25.07
2019-03-20T11:23:51.597Z,25.34
2019-03-20T11:26:57.459Z,25.21
2019-03-20T11:30:03.399Z,25.27
2019-03-20T11:33:10.360Z,25.17
2019-03-20T11:36:16.306Z,25.38
2019-03-20T11:39:29.544Z,24.78
2019-03-20T11:42:29.634Z,24.44
2019-03-20T11:45:36.570Z,24.39
2019-03-20T11:48:42.289Z,24.64
2019-03-20T11:51:48.241Z,24.85
2019-03-20T11:54:54.051Z,24.90
2019-03-20T11:57:59.895Z,25.09
2019-03-20T12:01:06.023Z,24.83
2019-03-20T12:04:11.850Z,24.88
2019-03-20T12:07:17.614Z,24.45
2019-03-20T12:10:23.774Z,23.92
2019-03-20T12:13:29.636Z,23.95
2019-03-20T12:16:35.429Z,24.32
2019-03-20T12:19:45.057Z,24.70
2019-03-20T12:22:49.307Z,24.55
2019-03-20T12:25:55.038Z,24.48
2019-03-20T12:29:00.784Z,24.50
2019-03-20T12:32:06.574Z,24.89
2019-03-20T12:35:13.403Z,25.12
2019-03-20T12:38:23.063Z,24.49
2019-03-20T12:41:28.794Z,24.68
2019-03-20T12:44:34.640Z,24.50
2019-03-20T12:47:40.415Z,24.83
2019-03-20T12:50:47.443Z,24.91
2019-03-20T12:53:53.332Z,24.59
2019-03-20T12:56:59.332Z,24.93
2019-03-20T13:00:07.135Z,24.54
2019-03-20T13:06:19.152Z,24.21
2019-03-20T13:09:24.941Z,24.23
2019-03-20T13:12:30.711Z,23.12
2019-03-20T13:15:36.449Z,22.84
2019-03-20T13:18:42.225Z,22.73
2019-03-20T13:21:48.018Z,23.50
2019-03-20T13:24:53.884Z,23.76
2019-03-20T13:27:59.806Z,24.04
2019-03-20T13:31:12.762Z,23.94
2019-03-20T13:34:18.493Z,23.82
2019-03-20T13:37:25.331Z,23.57
2019-03-20T13:40:31.102Z,23.36
2019-03-20T13:43:36.841Z,23.36
2019-03-20T13:46:42.613Z,23.44
2019-03-20T13:49:48.411Z,23.52
2019-03-20T13:52:54.169Z,23.52
2019-03-20T13:56:01.078Z,23.38
2019-03-20T13:59:07.217Z,22.73
2019-03-20T14:02:12.925Z,22.67
2019-03-20T14:05:20.212Z,22.40
2019-03-20T14:08:25.967Z,22.26
2019-03-20T14:11:31.702Z,22.72
2019-03-20T14:14:37.477Z,22.41
2019-03-20T14:17:43.436Z,21.98
2019-03-20T14:20:49.222Z,22.04
2019-03-20T14:23:55.010Z,22.04
2019-03-20T14:27:00.935Z,21.99
2019-03-20T14:30:09.956Z,21.90
2019-03-20T14:33:15.665Z,22.45
2019-03-20T14:36:21.504Z,22.11
2019-03-20T14:39:27.299Z,21.21
2019-03-20T14:42:33.028Z,21.23
2019-03-20T14:45:38.862Z,20.53
2019-03-20T14:48:44.718Z,20.55
2019-03-20T14:51:50.604Z,20.27
2019-03-20T14:54:56.353Z,20.45
2019-03-20T14:58:02.166Z,20.81
2019-03-20T15:01:07.911Z,20.82
2019-03-20T15:04:13.748Z,20.49
2019-03-20T15:07:19.501Z,19.68
2019-03-20T15:10:25.499Z,19.59
2019-03-20T15:13:31.249Z,19.74
2019-03-20T15:16:37.005Z,19.44
2019-03-20T15:19:42.802Z,19.65
2019-03-20T15:22:48.548Z,19.55
2019-03-20T15:25:54.463Z,19.23
2019-03-20T15:29:00.361Z,19.38
2019-03-20T15:32:06.410Z,19.57
2019-03-20T15:35:12.375Z,19.39
2019-03-20T15:38:18.108Z,19.44
2019-03-20T15:41:23.917Z,19.10
2019-03-20T15:44:30.759Z,18.89
2019-03-20T15:47:36.648Z,18.87
2019-03-20T15:50:42.520Z,18.68
2019-03-20T15:53:48.332Z,18.78
2019-03-20T15:56:56.066Z,18.46
2019-03-20T16:00:02.078Z,18.19
2019-03-20T16:03:11.163Z,18.35
2019-03-20T16:06:17.091Z,18.14
2019-03-20T16:09:22.870Z,17.50
2019-03-20T16:12:28.693Z,17.65
2019-03-20T16:15:34.465Z,17.50
2019-03-20T16:18:40.371Z,17.40
2019-03-20T16:21:46.191Z,17.30
2019-03-20T16:24:51.960Z,17.11
2019-03-20T16:27:57.996Z,16.75
2019-03-20T16:31:03.832Z,16.65
2019-03-20T16:34:09.616Z,16.65
2019-03-20T16:37:15.583Z,16.47
2019-03-20T16:40:23.015Z,16.47
2019-03-20T16:43:28.791Z,16.47
2019-03-20T16:46:34.706Z,16.33
2019-03-20T16:49:40.422Z,16.36
2019-03-20T16:52:46.567Z,16.40
2019-03-20T16:55:52.365Z,16.26
2019-03-20T16:58:58.194Z,16.28
2019-03-20T17:02:04.090Z,16.01
2019-03-20T17:05:10.358Z,16.08
2019-03-20T17:08:16.268Z,15.90
2019-03-20T17:11:30.385Z,15.72
2019-03-20T17:14:29.443Z,15.76
2019-03-20T17:17:35.340Z,15.78
2019-03-20T17:20:41.277Z,15.65
2019-03-20T17:23:48.562Z,15.53
2019-03-20T17:26:55.888Z,15.82
2019-03-20T17:30:01.690Z,15.55
2019-03-20T17:33:07.906Z,15.76
2019-03-20T17:36:13.729Z,15.70
2019-03-20T17:39:19.535Z,15.73
2019-03-20T17:42:25.438Z,15.71
2019-03-20T17:45:32.380Z,15.38
2019-03-20T17:48:38.135Z,15.29
2019-03-20T17:51:43.959Z,15.24
2019-03-20T17:54:49.743Z,15.00
2019-03-20T17:57:55.606Z,15.16
2019-03-20T18:01:01.646Z,15.28
2019-03-20T18:04:07.382Z,15.46
2019-03-20T18:07:13.198Z,15.24
2019-03-20T18:10:18.916Z,15.06
2019-03-20T18:13:24.830Z,14.91
2019-03-20T18:16:30.566Z,14.95
2019-03-20T18:19:36.365Z,14.57
2019-03-20T18:22:42.361Z,14.89
2019-03-20T18:25:48.088Z,14.91
2019-03-20T18:28:53.903Z,14.70
2019-03-20T18:31:59.632Z,14.85
2019-03-20T18:35:05.837Z,14.76
2019-03-20T18:38:11.720Z,14.50
2019-03-20T18:41:17.541Z,14.52
2019-03-20T18:44:23.391Z,14.69
2019-03-20T18:47:29.182Z,14.44
2019-03-20T18:50:34.949Z,14.52
2019-03-20T18:53:40.692Z,14.37
2019-03-20T18:56:46.431Z,14.47
2019-03-20T18:59:52.281Z,14.20
2019-03-20T19:02:58.873Z,14.40
2019-03-20T19:06:08.137Z,14.48
2019-03-20T19:09:13.870Z,14.67
2019-03-20T19:12:19.777Z,14.37
2019-03-20T19:15:25.850Z,14.51
2019-03-20T19:18:31.584Z,14.45
2019-03-20T19:21:37.341Z,14.51
2019-03-20T19:24:43.121Z,14.28
2019-03-20T19:27:48.839Z,14.27
2019-03-20T19:30:54.726Z,14.21
2019-03-20T19:34:00.911Z,14.40
2019-03-20T19:37:06.748Z,14.24
2019-03-20T19:41:12.104Z,14.40
2019-03-20T19:44:50.994Z,14.49
2019-03-20T19:49:00.409Z,14.37
2019-03-20T19:52:48.552Z,14.26
2019-03-20T19:56:21.545Z,14.58
2019-03-20T19:59:27.448Z,14.58
2019-03-20T20:03:15.261Z,14.35
2019-03-20T20:06:22.397Z,14.27
2019-03-20T20:09:29.146Z,14.44
2019-03-20T20:12:35.222Z,14.40
2019-03-20T20:15:40.999Z,14.23
2019-03-20T20:18:47.782Z,14.47
2019-03-20T20:21:53.953Z,14.35
2019-03-20T20:24:59.794Z,14.06
2019-03-20T20:28:05.819Z,14.30
2019-03-20T20:31:11.705Z,14.08
2019-03-20T20:34:17.436Z,14.24
2019-03-20T20:37:23.388Z,14.16
2019-03-20T20:40:29.209Z,14.28
2019-03-20T20:43:34.963Z,14.38
2019-03-20T20:46:40.773Z,14.51
2019-03-20T20:49:46.515Z,14.45
2019-03-20T20:52:52.294Z,14.49
2019-03-20T20:55:58.072Z,14.62
2019-03-20T20:59:03.918Z,14.56
2019-03-20T21:02:09.715Z,14.18
2019-03-20T21:05:15.769Z,14.23
2019-03-20T21:08:21.602Z,14.36
2019-03-20T21:11:27.473Z,14.66
2019-03-20T21:14:33.213Z,14.78
2019-03-20T21:18:02.181Z,14.83
2019-03-20T21:21:08.464Z,14.66
2019-03-20T21:24:30.254Z,14.76
2019-03-20T21:28:29.969Z,14.72
2019-03-20T21:32:06.337Z,14.74
2019-03-20T21:35:54.350Z,14.90
2019-03-20T21:39:00.678Z,14.89
2019-03-20T21:43:06.788Z,14.97
2019-03-20T21:46:38.033Z,14.77
2019-03-20T21:49:44.343Z,14.69
2019-03-20T21:52:50.606Z,14.30
2019-03-20T21:56:23.992Z,14.03
2019-03-20T22:00:12.438Z,14.03
2019-03-20T22:03:18.741Z,14.04
2019-03-20T22:07:03.902Z,13.84
2019-03-20T22:10:55.500Z,13.19
2019-03-20T22:14:05.563Z,13.33
2019-03-20T22:17:53.671Z,13.54
2019-03-20T22:21:23.408Z,13.28
2019-03-20T22:25:06.816Z,13.26
2019-03-20T22:28:53.365Z,12.85
2019-03-20T22:32:19.226Z,12.73
2019-03-20T22:35:34.465Z,13.03
2019-03-20T22:39:24.893Z,12.95
2019-03-20T22:42:51.210Z,12.83
2019-03-20T22:46:39.546Z,12.80
2019-03-20T22:50:18.432Z,12.72
2019-03-20T22:54:06.562Z,12.58
2019-03-20T22:57:50.137Z,12.72
2019-03-20T23:00:57.093Z,12.70
2019-03-20T23:04:10.113Z,12.80
2019-03-20T23:07:16.595Z,12.68
2019-03-20T23:10:22.848Z,12.91
2019-03-20T23:13:29.114Z,12.82
2019-03-20T23:16:35.368Z,12.82
2019-03-20T23:19:42.533Z,12.84
2019-03-20T23:22:48.867Z,12.76
2019-03-20T23:25:55.202Z,12.60
2019-03-20T23:29:01.571Z,12.69
2019-03-20T23:32:07.869Z,12.70
2019-03-20T23:35:14.430Z,12.56
2019-03-20T23:38:20.741Z,12.82
2019-03-20T23:41:27.206Z,12.90
2019-03-20T23:44:33.522Z,12.60
2019-03-20T23:48:04.345Z,12.87
2019-03-20T23:51:13.547Z,12.70
2019-03-20T23:54:23.065Z,12.99
2019-03-20T23:57:29.344Z,12.95
